createdAt,value
2023-03-29T00:00:14.497Z,101473.19
2023-03-29T00:02:48.742Z,101470.56
2023-03-29T00:05:22.995Z,101482.63
2023-03-29T00:07:54.136Z,101469.63
2023-03-29T00:10:24.174Z,101460.13
2023-03-29T00:12:52.726Z,101456.66
2023-03-29T00:15:21.993Z,101455.75
2023-03-29T00:17:49.611Z,101460.06
2023-03-29T00:20:17.686Z,101449.66
2023-03-29T00:22:46.861Z,101450.50
2023-03-29T00:25:14.761Z,101443.59
2023-03-29T00:27:42.104Z,101448.69
2023-03-29T00:30:12.725Z,101449.44
2023-03-29T00:32:44.481Z,101445.97
2023-03-29T00:35:12.269Z,101450.25
2023-03-29T00:37:41.235Z,101439.91
2023-03-29T00:40:12.432Z,101443.38
2023-03-29T00:42:44.705Z,101452.91
2023-03-29T00:45:27.127Z,101446.81
2023-03-29T00:48:02.922Z,101439.81
2023-03-29T00:50:43.685Z,101429.47
2023-03-29T00:53:30.821Z,101430.28
2023-03-29T00:56:14.250Z,101427.72
2023-03-29T00:58:57.628Z,101413.75
2023-03-29T01:01:55.086Z,101413.72
2023-03-29T01:04:44.681Z,101405.94
2023-03-29T01:07:18.148Z,101408.50
2023-03-29T01:09:56.021Z,101410.25
2023-03-29T01:12:36.486Z,101400.72
2023-03-29T01:15:19.313Z,101402.47
2023-03-29T01:17:50.937Z,101406.81
2023-03-29T01:20:52.075Z,101403.28
2023-03-29T01:23:34.456Z,101396.38
2023-03-29T01:26:31.004Z,101391.97
2023-03-29T01:29:14.474Z,101386.03
2023-03-29T01:31:54.844Z,101388.53
2023-03-29T01:34:56.641Z,101384.16
2023-03-29T01:37:41.354Z,101380.72
2023-03-29T01:40:12.406Z,101372.97
2023-03-29T01:43:18.997Z,101378.97
2023-03-29T01:46:08.414Z,101372.84
2023-03-29T01:49:11.673Z,101364.97
2023-03-29T01:51:49.877Z,101364.06
2023-03-29T01:54:32.800Z,101363.25
2023-03-29T01:57:05.075Z,101364.94
2023-03-29T01:59:41.068Z,101361.44
2023-03-29T02:02:17.253Z,101349.34
2023-03-29T02:04:56.657Z,101357.91
2023-03-29T02:07:31.445Z,101350.91
2023-03-29T02:10:00.917Z,101351.81
2023-03-29T02:12:29.952Z,101353.47
2023-03-29T02:15:07.252Z,101349.19
2023-03-29T02:17:35.267Z,101352.63
2023-03-29T02:20:23.759Z,101353.56
2023-03-29T02:23:11.204Z,101341.53
2023-03-29T02:25:47.868Z,101336.34
2023-03-29T02:28:34.135Z,101334.53
2023-03-29T02:31:18.232Z,101325.81
2023-03-29T02:34:40.596Z,101324.81
2023-03-29T02:37:16.697Z,101312.78
2023-03-29T02:40:04.973Z,101316.06
2023-03-29T02:43:08.367Z,101310.81
2023-03-29T02:45:45.228Z,101307.28
2023-03-29T02:48:25.103Z,101300.34
2023-03-29T02:51:01.233Z,101296.84
2023-03-29T02:54:19.602Z,101290.69
2023-03-29T02:56:58.732Z,101290.69
2023-03-29T02:59:30.916Z,101292.38
2023-03-29T03:02:05.654Z,101289.72
2023-03-29T03:04:35.772Z,101297.50
2023-03-29T03:07:05.552Z,101294.88
2023-03-29T03:09:33.720Z,101287.94
2023-03-29T03:12:02.749Z,101283.59
2023-03-29T03:14:33.422Z,101275.84
2023-03-29T03:17:04.357Z,101279.25
2023-03-29T03:19:33.847Z,101277.53
2023-03-29T03:22:01.588Z,101277.47
2023-03-29T03:24:29.482Z,101270.53
2023-03-29T03:26:58.175Z,101278.31
2023-03-29T03:29:26.438Z,101270.50
2023-03-29T03:32:12.554Z,101265.25
2023-03-29T03:34:58.959Z,101262.59
2023-03-29T03:37:28.625Z,101256.53
2023-03-29T03:39:57.914Z,101253.09
2023-03-29T03:42:29.896Z,101254.72
2023-03-29T03:45:01.916Z,101257.28
2023-03-29T03:47:52.001Z,101265.03
2023-03-29T03:50:38.298Z,101255.44
2023-03-29T03:53:16.401Z,101262.34
2023-03-29T03:56:08.831Z,101256.28
2023-03-29T03:59:01.748Z,101255.38
2023-03-29T04:01:35.453Z,101264.78
2023-03-29T04:04:15.605Z,101256.09
2023-03-29T04:07:07.329Z,101258.66
2023-03-29T04:09:35.666Z,101253.44
2023-03-29T04:12:21.751Z,101254.22
2023-03-29T04:15:11.581Z,101252.44
2023-03-29T04:17:44.404Z,101257.53
2023-03-29T04:20:49.793Z,101242.72
2023-03-29T04:23:20.893Z,101254.81
2023-03-29T04:26:01.462Z,101244.44
2023-03-29T04:28:42.957Z,101245.16
2023-03-29T04:31:16.977Z,101233.81
2023-03-29T04:33:59.131Z,101240.72
2023-03-29T04:36:39.984Z,101231.06
2023-03-29T04:39:14.565Z,101242.28
2023-03-29T04:41:54.610Z,101235.34
2023-03-29T04:44:33.996Z,101240.50
2023-03-29T04:47:07.041Z,101235.28
2023-03-29T04:49:52.016Z,101227.47
2023-03-29T04:52:33.401Z,101220.56
2023-03-29T04:55:04.601Z,101223.09
2023-03-29T04:57:47.274Z,101224.81
2023-03-29T05:00:27.236Z,101219.63
2023-03-29T05:02:57.912Z,101217.84
2023-03-29T05:05:29.177Z,101227.34
2023-03-29T05:07:59.440Z,101218.59
2023-03-29T05:10:36.312Z,101219.53
2023-03-29T05:13:04.264Z,101226.38
2023-03-29T05:15:33.149Z,101215.94
2023-03-29T05:18:01.212Z,101215.13
2023-03-29T05:20:29.944Z,101220.28
2023-03-29T05:23:11.736Z,101228.91
2023-03-29T05:26:10.027Z,101221.16
2023-03-29T05:28:40.697Z,101222.78
2023-03-29T05:31:10.241Z,101226.28
2023-03-29T05:33:49.369Z,101219.25
2023-03-29T05:36:21.255Z,101216.59
2023-03-29T05:38:55.756Z,101222.69
2023-03-29T05:41:32.679Z,101226.09
2023-03-29T05:44:31.675Z,101218.28
2023-03-29T05:49:52.775Z,101219.06
2023-03-29T05:52:23.858Z,101231.19
2023-03-29T05:54:54.654Z,101236.25
2023-03-29T05:57:23.123Z,101239.59
2023-03-29T05:59:54.361Z,101233.47
2023-03-29T06:02:42.979Z,101242.03
2023-03-29T06:08:02.928Z,101241.09
2023-03-29T06:10:50.350Z,101241.03
2023-03-29T06:13:43.112Z,101244.47
2023-03-29T06:16:13.920Z,101233.06
2023-03-29T06:18:44.959Z,101232.13
2023-03-29T06:21:28.669Z,101245.00
2023-03-29T06:24:43.753Z,101233.63
2023-03-29T06:27:21.465Z,101244.75
2023-03-29T06:29:51.888Z,101238.47
2023-03-29T06:32:19.969Z,101246.19
2023-03-29T06:35:11.792Z,101243.44
2023-03-29T06:37:49.528Z,101239.00
2023-03-29T06:40:28.192Z,101239.72
2023-03-29T06:46:01.067Z,101231.72
2023-03-29T06:48:41.274Z,101243.59
2023-03-29T06:51:08.761Z,101243.47
2023-03-29T06:53:38.940Z,101247.63
2023-03-29T06:56:09.781Z,101237.06
2023-03-29T06:58:49.337Z,101228.34
2023-03-29T07:01:31.612Z,101235.06
2023-03-29T07:04:09.367Z,101239.31
2023-03-29T07:07:03.592Z,101242.63
2023-03-29T07:09:35.884Z,101244.16
2023-03-29T07:12:26.448Z,101245.75
2023-03-29T07:14:58.839Z,101250.75
2023-03-29T07:17:42.106Z,101250.53
2023-03-29T07:20:14.416Z,101244.34
2023-03-29T07:22:47.433Z,101247.53
2023-03-29T07:25:19.332Z,101245.81
2023-03-29T07:27:47.569Z,101241.28
2023-03-29T07:30:23.637Z,101238.38
2023-03-29T07:32:53.750Z,101248.81
2023-03-29T07:35:29.187Z,101260.75
2023-03-29T07:37:57.294Z,101264.03
2023-03-29T07:40:26.446Z,101257.00
2023-03-29T07:42:57.850Z,101261.13
2023-03-29T07:45:29.110Z,101266.19
2023-03-29T07:48:15.460Z,101275.59
2023-03-29T07:50:57.313Z,101262.41
2023-03-29T07:53:30.456Z,101269.16
2023-03-29T07:55:59.525Z,101273.41
2023-03-29T07:58:43.264Z,101278.44
2023-03-29T08:01:17.962Z,101285.31
2023-03-29T08:04:09.805Z,101279.09
2023-03-29T08:06:59.089Z,101279.88
2023-03-29T08:09:38.714Z,101271.84
2023-03-29T08:12:07.654Z,101281.47
2023-03-29T08:14:38.563Z,101274.41
2023-03-29T08:17:24.231Z,101271.66
2023-03-29T08:19:52.816Z,101270.88
2023-03-29T08:22:24.860Z,101274.22
2023-03-29T08:25:08.151Z,101268.88
2023-03-29T08:27:43.364Z,101266.97
2023-03-29T08:30:22.117Z,101265.13
2023-03-29T08:32:54.862Z,101272.78
2023-03-29T08:35:23.400Z,101258.78
2023-03-29T08:38:17.043Z,101262.31
2023-03-29T08:40:48.800Z,101261.56
2023-03-29T08:43:56.428Z,101273.03
2023-03-29T08:47:21.138Z,101266.19
2023-03-29T08:49:55.894Z,101261.88
2023-03-29T08:52:39.126Z,101267.09
2023-03-29T08:55:46.493Z,101255.25
2023-03-29T08:58:37.863Z,101264.38
2023-03-29T09:01:09.860Z,101257.84
2023-03-29T09:04:16.398Z,101256.56
2023-03-29T09:06:52.893Z,101249.28
2023-03-29T09:09:43.171Z,101250.66
2023-03-29T09:13:26.027Z,101251.91
2023-03-29T09:16:20.120Z,101248.63
2023-03-29T09:19:15.467Z,101245.47
2023-03-29T09:22:02.999Z,101239.81
2023-03-29T09:25:14.009Z,101250.75
2023-03-29T09:28:13.577Z,101251.25
2023-03-29T09:31:07.882Z,101256.19
2023-03-29T09:34:14.589Z,101257.69
2023-03-29T09:37:21.408Z,101248.34
2023-03-29T09:39:53.173Z,101249.13
2023-03-29T09:42:29.260Z,101248.34
2023-03-29T09:45:08.571Z,101251.03
2023-03-29T09:48:15.536Z,101239.44
2023-03-29T09:50:51.789Z,101247.28
2023-03-29T09:53:24.559Z,101247.28
2023-03-29T09:56:03.004Z,101240.13
2023-03-29T09:58:48.166Z,101254.56
2023-03-29T10:01:28.595Z,101248.31
2023-03-29T10:03:59.079Z,101242.78
2023-03-29T10:06:26.993Z,101249.88
2023-03-29T10:09:10.107Z,101257.25
2023-03-29T10:12:02.121Z,101261.03
2023-03-29T10:14:38.219Z,101257.38
2023-03-29T10:17:22.402Z,101251.72
2023-03-29T10:20:05.581Z,101264.38
2023-03-29T10:22:38.044Z,101254.44
2023-03-29T10:25:14.221Z,101248.34
2023-03-29T10:27:46.273Z,101242.41
2023-03-29T10:30:24.001Z,101239.28
2023-03-29T10:33:00.053Z,101247.06
2023-03-29T10:35:44.614Z,101239.16
2023-03-29T10:38:18.727Z,101234.50
2023-03-29T10:40:50.524Z,101229.81
2023-03-29T10:43:43.353Z,101237.25
2023-03-29T10:46:22.023Z,101233.66
2023-03-29T10:48:59.848Z,101234.50
2023-03-29T10:51:30.853Z,101233.66
2023-03-29T10:53:59.615Z,101243.03
2023-03-29T10:56:59.236Z,101228.78
2023-03-29T11:00:10.882Z,101217.19
2023-03-29T11:03:17.631Z,101214.31
2023-03-29T11:06:03.308Z,101198.03
2023-03-29T11:09:06.893Z,101201.47
2023-03-29T11:12:24.166Z,101190.22
2023-03-29T11:15:15.682Z,101185.91
2023-03-29T11:18:20.724Z,101187.69
2023-03-29T11:21:28.095Z,101178.06
2023-03-29T11:24:51.468Z,101178.63
2023-03-29T11:28:13.434Z,101180.00
2023-03-29T11:31:08.608Z,101186.94
2023-03-29T11:33:58.150Z,101176.28
2023-03-29T11:37:03.615Z,101184.91
2023-03-29T11:39:55.337Z,101188.47
2023-03-29T11:42:34.106Z,101186.44
2023-03-29T11:45:05.236Z,101193.09
2023-03-29T11:47:40.940Z,101188.78
2023-03-29T11:50:42.668Z,101193.19
2023-03-29T11:53:22.863Z,101184.66
2023-03-29T11:55:54.585Z,101187.66
2023-03-29T11:58:41.143Z,101187.81
2023-03-29T12:01:19.280Z,101170.03
2023-03-29T12:04:39.033Z,101172.59
2023-03-29T12:08:07.709Z,101168.28
2023-03-29T12:10:53.144Z,101168.53
2023-03-29T12:13:56.275Z,101170.22
2023-03-29T12:16:48.396Z,101173.16
2023-03-29T12:19:43.326Z,101172.06
2023-03-29T12:22:11.466Z,101163.59
2023-03-29T12:24:49.094Z,101161.16
2023-03-29T12:27:35.268Z,101169.88
2023-03-29T12:30:29.561Z,101171.75
2023-03-29T12:33:52.444Z,101172.84
2023-03-29T12:37:32.038Z,101168.78
2023-03-29T12:40:43.344Z,101160.22
2023-03-29T12:43:43.691Z,101162.84
2023-03-29T12:46:35.473Z,101159.13
2023-03-29T12:49:38.065Z,101144.94
2023-03-29T12:52:37.124Z,101142.56
2023-03-29T12:55:48.388Z,101135.00
2023-03-29T12:58:59.950Z,101113.63
2023-03-29T13:01:38.702Z,101106.06
2023-03-29T13:04:20.636Z,101086.34
2023-03-29T13:07:03.571Z,101101.47
2023-03-29T13:09:54.524Z,101097.78
2023-03-29T13:12:40.084Z,101083.34
2023-03-29T13:15:14.714Z,101092.31
2023-03-29T13:18:11.823Z,101084.22
2023-03-29T13:21:10.426Z,101085.66
2023-03-29T13:24:18.321Z,101080.28
2023-03-29T13:27:18.020Z,101084.28
2023-03-29T13:30:21.127Z,101076.03
2023-03-29T13:33:44.473Z,101063.59
2023-03-29T13:37:02.613Z,101061.69
2023-03-29T13:39:36.982Z,101072.25
2023-03-29T13:42:59.737Z,101061.06
2023-03-29T13:45:33.526Z,101062.75
2023-03-29T13:48:29.716Z,101057.38
2023-03-29T13:51:09.452Z,101056.63
2023-03-29T13:54:08.011Z,101057.06
2023-03-29T13:57:10.733Z,101036.69
2023-03-29T14:00:15.326Z,101042.53
2023-03-29T14:03:07.555Z,101034.63
2023-03-29T14:05:40.057Z,101035.25
2023-03-29T14:08:42.224Z,101029.88
2023-03-29T14:11:31.145Z,101033.16
2023-03-29T14:14:05.259Z,101035.59
2023-03-29T14:16:40.901Z,101028.22
2023-03-29T14:19:32.069Z,101036.03
2023-03-29T14:22:12.438Z,101027.25
2023-03-29T14:24:51.939Z,101029.06
2023-03-29T14:27:22.277Z,101023.16
2023-03-29T14:29:52.380Z,101018.00
2023-03-29T14:32:30.631Z,101019.56
2023-03-29T14:34:58.759Z,101011.63
2023-03-29T14:37:29.949Z,101004.81
2023-03-29T14:39:59.691Z,100995.91
2023-03-29T14:42:29.468Z,100993.19
2023-03-29T14:45:06.978Z,100992.25
2023-03-29T14:47:37.714Z,100980.53
2023-03-29T14:50:07.216Z,100989.06
2023-03-29T14:52:37.042Z,100984.72
2023-03-29T14:55:07.256Z,100977.69
2023-03-29T14:57:37.858Z,100976.81
2023-03-29T15:00:39.760Z,100978.53
2023-03-29T15:03:16.346Z,100968.69
2023-03-29T15:06:08.893Z,100949.59
2023-03-29T15:08:50.841Z,100947.06
2023-03-29T15:11:29.670Z,100933.63
2023-03-29T15:14:09.206Z,100940.78
2023-03-29T15:16:46.173Z,100935.06
2023-03-29T15:19:24.633Z,100931.00
2023-03-29T15:21:52.830Z,100926.38
2023-03-29T15:24:34.246Z,100925.41
2023-03-29T15:27:14.671Z,100913.44
2023-03-29T15:29:46.897Z,100909.75
2023-03-29T15:32:33.625Z,100916.81
2023-03-29T15:35:09.537Z,100917.16
2023-03-29T15:37:38.138Z,100911.75
2023-03-29T15:40:15.753Z,100903.59
2023-03-29T15:42:43.650Z,100906.03
2023-03-29T15:45:21.851Z,100909.00
2023-03-29T15:47:50.207Z,100918.97
2023-03-29T15:50:17.703Z,100905.25
2023-03-29T15:52:45.054Z,100894.16
2023-03-29T15:55:12.418Z,100898.94
2023-03-29T15:57:42.557Z,100892.19
2023-03-29T16:00:16.870Z,100879.44
2023-03-29T16:02:44.414Z,100875.13
2023-03-29T16:05:13.189Z,100868.38
2023-03-29T16:07:40.526Z,100871.47
2023-03-29T16:10:10.128Z,100866.41
2023-03-29T16:12:39.196Z,100864.09
2023-03-29T16:15:20.499Z,100863.28
2023-03-29T16:17:48.010Z,100864.31
2023-03-29T16:20:19.993Z,100860.22
2023-03-29T16:22:48.875Z,100845.47
2023-03-29T16:25:23.309Z,100842.06
2023-03-29T16:27:57.271Z,100840.53
2023-03-29T16:30:31.529Z,100845.03
2023-03-29T16:32:58.960Z,100843.38
2023-03-29T16:35:33.127Z,100834.72
2023-03-29T16:38:00.549Z,100828.50
2023-03-29T16:40:34.784Z,100826.78
2023-03-29T16:43:03.253Z,100815.19
2023-03-29T16:45:31.714Z,100825.03
2023-03-29T16:47:59.489Z,100813.59
2023-03-29T16:50:29.101Z,100796.13
2023-03-29T16:52:57.193Z,100812.78
2023-03-29T16:55:25.151Z,100813.72
2023-03-29T16:57:53.177Z,100811.19
2023-03-29T17:00:27.968Z,100803.28
2023-03-29T17:03:13.408Z,100816.56
2023-03-29T17:05:57.573Z,100803.50
2023-03-29T17:08:45.188Z,100795.69
2023-03-29T17:11:18.492Z,100793.91
2023-03-29T17:13:46.075Z,100785.25
2023-03-29T17:16:13.374Z,100780.41
2023-03-29T17:18:40.959Z,100783.72
2023-03-29T17:21:08.662Z,100773.34
2023-03-29T17:23:37.556Z,100763.13
2023-03-29T17:26:07.005Z,100761.53
2023-03-29T17:28:35.162Z,100748.34
2023-03-29T17:31:13.877Z,100750.16
2023-03-29T17:33:41.526Z,100754.06
2023-03-29T17:36:10.094Z,100748.81
2023-03-29T17:38:40.410Z,100752.53
2023-03-29T17:41:11.331Z,100740.38
2023-03-29T17:43:55.240Z,100743.25
2023-03-29T17:46:27.431Z,100742.75
2023-03-29T17:49:00.363Z,100736.72
2023-03-29T17:51:50.644Z,100739.56
2023-03-29T17:54:23.421Z,100731.88
2023-03-29T17:56:58.890Z,100732.09
2023-03-29T17:59:27.630Z,100727.03
2023-03-29T18:01:57.340Z,100726.31
2023-03-29T18:04:24.894Z,100722.09
2023-03-29T18:06:52.394Z,100720.66
2023-03-29T18:09:19.824Z,100719.06
2023-03-29T18:11:51.313Z,100728.00
2023-03-29T18:14:18.801Z,100727.28
2023-03-29T18:16:46.755Z,100729.31
2023-03-29T18:19:15.296Z,100733.94
2023-03-29T18:21:43.388Z,100735.72
2023-03-29T18:24:12.132Z,100725.31
2023-03-29T18:26:47.635Z,100724.69
2023-03-29T18:29:16.366Z,100727.63
2023-03-29T18:31:45.959Z,100722.47
2023-03-29T18:34:15.620Z,100718.25
2023-03-29T18:36:43.280Z,100720.25
2023-03-29T18:39:10.977Z,100720.47
2023-03-29T18:41:39.346Z,100710.97
2023-03-29T18:44:08.029Z,100714.66
2023-03-29T18:46:41.195Z,100717.50
2023-03-29T18:49:13.170Z,100710.56
2023-03-29T18:51:42.113Z,100711.50
2023-03-29T18:54:10.167Z,100716.06
2023-03-29T18:56:37.687Z,100703.81
2023-03-29T18:59:06.938Z,100701.41
2023-03-29T19:01:34.753Z,100703.63
2023-03-29T19:04:02.703Z,100707.09
2023-03-29T19:06:31.821Z,100703.72
2023-03-29T19:09:05.148Z,100700.34
2023-03-29T19:11:33.352Z,100699.50
2023-03-29T19:14:01.819Z,100696.16
2023-03-29T19:16:29.132Z,100697.28
2023-03-29T19:18:59.288Z,100696.34
2023-03-29T19:21:30.462Z,100699.91
2023-03-29T19:24:00.653Z,100685.16
2023-03-29T19:26:29.488Z,100686.16
2023-03-29T19:28:59.352Z,100687.19
2023-03-29T19:31:27.521Z,100685.66
2023-03-29T19:33:56.184Z,100681.38
2023-03-29T19:36:25.357Z,100679.56
2023-03-29T19:38:54.081Z,100670.94
2023-03-29T19:41:22.133Z,100669.16
2023-03-29T19:43:49.413Z,100669.16
2023-03-29T19:46:16.840Z,100661.47
2023-03-29T19:48:53.338Z,100656.94
2023-03-29T19:51:20.674Z,100645.56
2023-03-29T19:53:48.024Z,100646.50
2023-03-29T19:56:19.639Z,100627.34
2023-03-29T19:58:48.123Z,100624.00
2023-03-29T20:01:20.917Z,100633.44
2023-03-29T20:03:50.738Z,100633.56
2023-03-29T20:06:21.431Z,100638.00
2023-03-29T20:08:49.521Z,100625.78
2023-03-29T20:11:20.308Z,100618.75
2023-03-29T20:13:49.478Z,100608.22
2023-03-29T20:16:19.474Z,100610.94
2023-03-29T20:18:47.429Z,100602.09
2023-03-29T20:21:18.956Z,100600.44
2023-03-29T20:23:53.441Z,100587.28
2023-03-29T20:26:21.571Z,100590.00
2023-03-29T20:28:49.779Z,100583.16
2023-03-29T20:31:17.395Z,100571.28
2023-03-29T20:33:44.708Z,100576.44
2023-03-29T20:36:13.172Z,100565.28
2023-03-29T20:38:42.010Z,100570.63
2023-03-29T20:41:10.853Z,100562.75
2023-03-29T20:43:38.554Z,100550.78
2023-03-29T20:46:15.132Z,100549.19
2023-03-29T20:48:53.547Z,100545.06
2023-03-29T20:51:42.537Z,100541.81
2023-03-29T20:54:10.550Z,100540.22
2023-03-29T20:56:42.210Z,100544.97
2023-03-29T20:59:12.614Z,100538.03
2023-03-29T21:01:41.686Z,100535.59
2023-03-29T21:04:10.776Z,100531.41
2023-03-29T21:06:41.502Z,100524.47
2023-03-29T21:09:09.093Z,100522.88
2023-03-29T21:11:36.554Z,100522.34
2023-03-29T21:14:04.590Z,100525.81
2023-03-29T21:16:31.962Z,100515.41
2023-03-29T21:18:59.318Z,100525.72
2023-03-29T21:21:26.879Z,100519.72
2023-03-29T21:23:54.116Z,100512.78
2023-03-29T21:26:36.623Z,100506.69
2023-03-29T21:29:04.607Z,100504.78
2023-03-29T21:31:33.543Z,100503.94
2023-03-29T21:34:01.738Z,100498.59
2023-03-29T21:36:29.114Z,100498.69
2023-03-29T21:38:56.546Z,100509.00
2023-03-29T21:41:26.300Z,100489.56
2023-03-29T21:43:53.622Z,100496.47
2023-03-29T21:46:21.339Z,100499.66
2023-03-29T21:48:48.679Z,100496.16
2023-03-29T21:51:17.235Z,100485.66
2023-03-29T21:53:44.466Z,100485.66
2023-03-29T21:56:12.200Z,100483.00
2023-03-29T21:58:39.645Z,100481.25
2023-03-29T22:01:10.202Z,100475.13
2023-03-29T22:03:38.758Z,100486.50
2023-03-29T22:06:09.607Z,100474.19
2023-03-29T22:08:40.418Z,100469.97
2023-03-29T22:11:15.518Z,100467.44
2023-03-29T22:13:44.811Z,100469.25
2023-03-29T22:16:16.516Z,100461.69
2023-03-29T22:18:52.589Z,100458.94
2023-03-29T22:21:28.621Z,100465.25
2023-03-29T22:23:59.763Z,100454.72
2023-03-29T22:26:32.163Z,100448.75
2023-03-29T22:29:01.475Z,100447.91
2023-03-29T22:31:32.433Z,100446.94
2023-03-29T22:34:00.725Z,100437.50
2023-03-29T22:36:31.185Z,100435.91
2023-03-29T22:38:59.737Z,100443.59
2023-03-29T22:41:28.244Z,100438.56
2023-03-29T22:44:00.934Z,100456.94
2023-03-29T22:46:30.013Z,100446.44
2023-03-29T22:48:57.460Z,100442.00
2023-03-29T22:51:25.028Z,100444.53
2023-03-29T22:53:53.187Z,100433.19
2023-03-29T22:56:20.586Z,100442.75
2023-03-29T22:58:48.061Z,100440.97
2023-03-29T23:01:15.293Z,100435.72
2023-03-29T23:03:42.601Z,100433.91
2023-03-29T23:06:09.905Z,100424.25
2023-03-29T23:08:37.236Z,100433.09
2023-03-29T23:11:05.240Z,100421.53
2023-03-29T23:13:39.737Z,100430.25
2023-03-29T23:16:08.122Z,100417.94
2023-03-29T23:18:37.521Z,100417.94
2023-03-29T23:21:06.158Z,100421.53
2023-03-29T23:23:34.129Z,100421.41
2023-03-29T23:26:02.866Z,100421.41
2023-03-29T23:28:31.399Z,100416.06
2023-03-29T23:31:13.315Z,100411.84
2023-03-29T23:33:42.852Z,100408.50
2023-03-29T23:36:18.222Z,100396.28
2023-03-29T23:38:46.986Z,100408.69
2023-03-29T23:41:14.997Z,100413.31
2023-03-29T23:43:47.042Z,100423.00
2023-03-29T23:46:18.770Z,100426.66
2023-03-29T23:48:50.801Z,100422.47
2023-03-29T23:51:22.894Z,100417.22
2023-03-29T23:53:51.441Z,100428.06
2023-03-29T23:56:18.848Z,100417.09
2023-03-29T23:58:46.166Z,100404.28
